createdAt,value
2023-10-21T00:00:28.623Z,98496.72
2023-10-21T00:03:30.967Z,98496.31
2023-10-21T00:06:32.913Z,98485.44
2023-10-21T00:09:35.004Z,98493.06
2023-10-21T00:12:38.290Z,98498.97
2023-10-21T00:15:41.667Z,98503.13
2023-10-21T00:18:43.492Z,98493.22
2023-10-21T00:21:45.307Z,98506.50
2023-10-21T00:24:47.484Z,98517.00
2023-10-21T00:27:49.721Z,98508.16
2023-10-21T00:30:51.489Z,98505.19
2023-10-21T00:33:53.661Z,98511.16
2023-10-21T00:36:55.415Z,98505.03
2023-10-21T00:39:57.248Z,98506.59
2023-10-21T00:42:58.984Z,98508.41
2023-10-21T00:46:08.177Z,98516.28
2023-10-21T00:49:11.176Z,98519.34
2023-10-21T00:52:14.898Z,98531.00
2023-10-21T00:55:17.409Z,98533.00
2023-10-21T00:58:20.328Z,98523.88
2023-10-21T01:01:22.710Z,98538.03
2023-10-21T01:04:26.190Z,98543.66
2023-10-21T01:07:28.420Z,98549.53
2023-10-21T01:10:30.223Z,98544.31
2023-10-21T01:13:31.968Z,98545.22
2023-10-21T01:16:33.830Z,98537.53
2023-10-21T01:19:35.814Z,98539.03
2023-10-21T01:22:37.711Z,98545.75
2023-10-21T01:25:39.460Z,98537.78
2023-10-21T01:28:41.801Z,98541.84
2023-10-21T01:31:43.572Z,98537.63
2023-10-21T01:34:45.436Z,98540.13
2023-10-21T01:37:47.223Z,98548.09
2023-10-21T01:40:51.042Z,98549.47
2023-10-21T01:43:52.946Z,98547.09
2023-10-21T01:46:54.765Z,98542.28
2023-10-21T01:49:56.715Z,98536.81
2023-10-21T01:52:59.546Z,98539.47
2023-10-21T01:56:05.059Z,98544.78
2023-10-21T01:59:07.727Z,98555.53
2023-10-21T02:02:10.373Z,98554.44
2023-10-21T02:05:12.276Z,98559.53
2023-10-21T02:08:14.123Z,98563.59
2023-10-21T02:11:21.481Z,98576.25
2023-10-21T02:14:24.568Z,98579.97
2023-10-21T02:17:26.832Z,98590.50
2023-10-21T02:20:28.655Z,98583.38
2023-10-21T02:23:30.416Z,98591.00
2023-10-21T02:26:32.218Z,98601.66
2023-10-21T02:29:34.229Z,98609.53
2023-10-21T02:32:36.206Z,98611.47
2023-10-21T02:35:38.038Z,98610.38
2023-10-21T02:38:39.822Z,98607.47
2023-10-21T02:41:41.846Z,98611.50
2023-10-21T02:44:43.832Z,98605.06
2023-10-21T02:47:45.748Z,98613.16
2023-10-21T02:50:47.651Z,98600.16
2023-10-21T02:53:49.463Z,98602.88
2023-10-21T02:56:51.831Z,98621.31
2023-10-21T02:59:53.717Z,98617.63
2023-10-21T03:02:55.679Z,98611.59
2023-10-21T03:05:57.657Z,98633.56
2023-10-21T03:09:00.822Z,98637.31
2023-10-21T03:12:02.769Z,98632.28
2023-10-21T03:15:07.950Z,98636.59
2023-10-21T03:18:09.948Z,98631.63
2023-10-21T03:21:11.748Z,98638.78
2023-10-21T03:24:13.619Z,98645.56
2023-10-21T03:27:15.466Z,98638.28
2023-10-21T03:30:17.718Z,98640.53
2023-10-21T03:33:19.638Z,98642.09
2023-10-21T03:36:22.404Z,98637.81
2023-10-21T03:39:24.270Z,98634.63
2023-10-21T03:42:26.123Z,98639.47
2023-10-21T03:45:27.965Z,98640.13
2023-10-21T03:48:29.840Z,98648.69
2023-10-21T03:51:31.924Z,98662.75
2023-10-21T03:54:33.883Z,98659.88
2023-10-21T03:57:35.828Z,98669.28
2023-10-21T04:00:38.774Z,98671.28
2023-10-21T04:03:40.709Z,98679.91
2023-10-21T04:06:42.655Z,98689.06
2023-10-21T04:09:44.930Z,98695.47
2023-10-21T04:12:47.988Z,98709.63
2023-10-21T04:15:50.817Z,98715.91
2023-10-21T04:18:52.807Z,98709.44
2023-10-21T04:21:54.578Z,98714.53
2023-10-21T04:24:56.437Z,98717.88
2023-10-21T04:27:58.646Z,98722.44
2023-10-21T04:31:00.550Z,98730.13
2023-10-21T04:34:02.668Z,98733.91
2023-10-21T04:37:04.495Z,98738.78
2023-10-21T04:40:06.971Z,98762.88
2023-10-21T04:43:08.840Z,98745.06
2023-10-21T04:46:10.658Z,98761.69
2023-10-21T04:49:12.533Z,98779.13
2023-10-21T04:52:18.356Z,98770.94
2023-10-21T04:55:22.133Z,98783.78
2023-10-21T04:58:23.873Z,98793.59
2023-10-21T05:01:25.659Z,98811.63
2023-10-21T05:04:27.553Z,98810.22
2023-10-21T05:07:29.446Z,98821.97
2023-10-21T05:10:31.196Z,98808.81
2023-10-21T05:13:33.143Z,98817.38
2023-10-21T05:16:34.990Z,98805.97
2023-10-21T05:19:36.846Z,98792.94
2023-10-21T05:22:38.735Z,98785.94
2023-10-21T05:25:40.627Z,98770.19
2023-10-21T05:28:42.398Z,98782.44
2023-10-21T05:31:44.150Z,98764.13
2023-10-21T05:34:45.905Z,98760.88
2023-10-21T05:37:47.713Z,98770.66
2023-10-21T05:40:50.425Z,98772.50
2023-10-21T05:43:53.142Z,98782.75
2023-10-21T05:46:54.972Z,98783.69
2023-10-21T05:49:56.850Z,98784.13
2023-10-21T05:52:59.034Z,98786.78
2023-10-21T05:56:01.051Z,98814.31
2023-10-21T05:59:05.049Z,98819.78
2023-10-21T06:02:07.349Z,98817.28
2023-10-21T06:05:09.196Z,98838.97
2023-10-21T06:08:11.991Z,98852.75
2023-10-21T06:11:13.968Z,98888.19
2023-10-21T06:14:15.713Z,98903.09
2023-10-21T06:17:17.737Z,98902.19
2023-10-21T06:20:19.713Z,98911.97
2023-10-21T06:23:21.474Z,98916.13
2023-10-21T06:26:23.330Z,98922.56
2023-10-21T06:29:25.290Z,98927.72
2023-10-21T06:32:27.686Z,98941.28
2023-10-21T06:35:29.610Z,98944.00
2023-10-21T06:38:31.654Z,98953.53
2023-10-21T06:41:34.547Z,98977.41
2023-10-21T06:44:38.045Z,98969.44
2023-10-21T06:47:39.998Z,98956.88
2023-10-21T06:50:42.207Z,98969.22
2023-10-21T06:53:44.546Z,98978.97
2023-10-21T06:56:47.538Z,98986.38
2023-10-21T06:59:49.576Z,98985.63
2023-10-21T07:02:52.324Z,98981.63
2023-10-21T07:05:54.254Z,98995.69
2023-10-21T07:08:56.022Z,98991.97
2023-10-21T07:11:57.865Z,98975.69
2023-10-21T07:14:59.629Z,98975.25
2023-10-21T07:18:01.677Z,98992.31
2023-10-21T07:21:05.799Z,98984.63
2023-10-21T07:24:08.389Z,98987.22
2023-10-21T07:27:10.234Z,98993.41
2023-10-21T07:30:12.356Z,99032.88
2023-10-21T07:33:14.937Z,99032.03
2023-10-21T07:36:16.886Z,99029.84
2023-10-21T07:39:19.678Z,99021.22
2023-10-21T07:42:21.608Z,99028.63
2023-10-21T07:45:24.513Z,99045.72
2023-10-21T07:48:28.667Z,99053.81
2023-10-21T07:51:34.152Z,99055.03
2023-10-21T07:54:36.229Z,99079.13
2023-10-21T07:57:39.553Z,99074.28
2023-10-21T08:00:41.445Z,99065.50
2023-10-21T08:03:45.712Z,99067.69
2023-10-21T08:06:48.213Z,99080.47
2023-10-21T08:09:50.985Z,99090.25
2023-10-21T08:12:52.960Z,99103.88
2023-10-21T08:15:54.703Z,99097.81
2023-10-21T08:18:57.100Z,99102.16
2023-10-21T08:21:59.233Z,99122.41
2023-10-21T08:25:02.271Z,99121.53
2023-10-21T08:28:04.492Z,99114.78
2023-10-21T08:31:06.282Z,99115.41
2023-10-21T08:34:11.831Z,99127.41
2023-10-21T08:37:16.572Z,99128.44
2023-10-21T08:40:19.541Z,99136.31
2023-10-21T08:43:23.056Z,99125.44
2023-10-21T08:46:27.609Z,99109.47
2023-10-21T08:49:32.186Z,99115.94
2023-10-21T08:52:35.800Z,99122.78
2023-10-21T08:55:39.587Z,99133.50
2023-10-21T08:58:43.717Z,99143.06
2023-10-21T09:01:50.014Z,99148.19
2023-10-21T09:04:53.162Z,99157.97
2023-10-21T09:07:54.960Z,99161.25
2023-10-21T09:11:00.415Z,99176.78
2023-10-21T09:14:02.292Z,99173.44
2023-10-21T09:17:04.292Z,99180.78
2023-10-21T09:20:13.088Z,99172.06
2023-10-21T09:23:14.865Z,99193.75
2023-10-21T09:26:17.599Z,99192.72
2023-10-21T09:29:21.434Z,99190.63
2023-10-21T09:32:29.905Z,99170.91
2023-10-21T09:35:32.218Z,99150.50
2023-10-21T09:38:38.459Z,99138.31
2023-10-21T09:41:43.198Z,99138.53
2023-10-21T09:44:46.263Z,99147.34
2023-10-21T09:47:48.152Z,99145.56
2023-10-21T09:50:55.206Z,99164.47
2023-10-21T09:54:01.879Z,99168.66
2023-10-21T09:57:07.982Z,99168.00
2023-10-21T10:00:11.460Z,99173.38
2023-10-21T10:03:16.116Z,99166.84
2023-10-21T10:06:21.929Z,99161.84
2023-10-21T10:09:28.861Z,99154.44
2023-10-21T10:12:38.582Z,99166.91
2023-10-21T10:15:43.259Z,99170.75
2023-10-21T10:18:51.368Z,99155.81
2023-10-21T10:21:54.050Z,99131.63
2023-10-21T10:24:57.436Z,99119.19
2023-10-21T10:28:01.935Z,99123.16
2023-10-21T10:31:05.529Z,99119.38
2023-10-21T10:34:08.907Z,99124.53
2023-10-21T10:37:31.819Z,99120.38
2023-10-21T10:40:35.301Z,99142.88
2023-10-21T10:43:42.596Z,99118.16
2023-10-21T10:46:44.571Z,99117.50
2023-10-21T10:50:01.470Z,99131.63
2023-10-21T10:53:13.158Z,99159.31
2023-10-21T10:56:21.103Z,99153.88
2023-10-21T10:59:25.462Z,99144.81
2023-10-21T11:02:30.180Z,99159.78
2023-10-21T11:05:32.866Z,99164.59
2023-10-21T11:08:37.112Z,99149.28
2023-10-21T11:11:50.853Z,99151.03
2023-10-21T11:15:07.423Z,99161.94
2023-10-21T11:18:09.366Z,99171.88
2023-10-21T11:21:11.370Z,99188.94
2023-10-21T11:24:14.473Z,99186.03
2023-10-21T11:27:17.011Z,99176.41
2023-10-21T11:30:18.925Z,99174.44
2023-10-21T11:33:21.915Z,99177.63
2023-10-21T11:36:26.994Z,99189.97
2023-10-21T11:39:28.959Z,99189.94
2023-10-21T11:42:30.991Z,99196.53
2023-10-21T11:45:33.061Z,99212.97
2023-10-21T11:48:38.738Z,99216.78
2023-10-21T11:51:47.903Z,99217.97
2023-10-21T11:55:12.650Z,99221.16
2023-10-21T11:58:38.821Z,99225.56
2023-10-21T12:02:05.498Z,99211.72
2023-10-21T12:05:16.510Z,99225.06
2023-10-21T12:08:37.463Z,99226.56
2023-10-21T12:11:48.275Z,99229.72
2023-10-21T12:15:19.294Z,99240.38
2023-10-21T12:18:27.134Z,99232.59
2023-10-21T12:21:41.180Z,99240.38
2023-10-21T12:25:01.993Z,99239.59
2023-10-21T12:28:16.026Z,99255.69
2023-10-21T12:31:36.366Z,99269.41
2023-10-21T12:34:38.572Z,99269.63
2023-10-21T12:37:59.065Z,99295.59
2023-10-21T12:41:15.099Z,99287.94
2023-10-21T12:44:16.931Z,99285.13
2023-10-21T12:47:19.872Z,99296.28
2023-10-21T12:50:21.653Z,99314.19
2023-10-21T12:53:24.707Z,99304.84
2023-10-21T12:56:28.613Z,99315.00
2023-10-21T12:59:30.420Z,99329.59
2023-10-21T13:02:37.137Z,99309.66
2023-10-21T13:05:40.112Z,99319.66
2023-10-21T13:08:41.951Z,99310.44
2023-10-21T13:11:43.704Z,99314.31
2023-10-21T13:14:45.982Z,99307.13
2023-10-21T13:17:49.899Z,99316.19
2023-10-21T13:20:53.430Z,99312.03
2023-10-21T13:23:56.715Z,99318.66
2023-10-21T13:26:58.532Z,99318.34
2023-10-21T13:30:00.392Z,99310.44
2023-10-21T13:33:03.680Z,99306.09
2023-10-21T13:36:07.570Z,99287.47
2023-10-21T13:39:21.980Z,99292.44
2023-10-21T13:42:23.829Z,99288.53
2023-10-21T13:45:28.032Z,99288.63
2023-10-21T13:48:29.909Z,99271.44
2023-10-21T13:51:31.942Z,99260.19
2023-10-21T13:54:33.872Z,99260.38
2023-10-21T13:57:36.320Z,99251.16
2023-10-21T14:00:39.293Z,99243.19
2023-10-21T14:03:41.289Z,99232.41
2023-10-21T14:06:43.397Z,99239.09
2023-10-21T14:09:45.299Z,99244.34
2023-10-21T14:12:49.594Z,99234.78
2023-10-21T14:15:55.503Z,99235.53
2023-10-21T14:18:58.075Z,99242.91
2023-10-21T14:22:01.015Z,99247.31
2023-10-21T14:25:02.944Z,99250.63
2023-10-21T14:28:10.895Z,99258.88
2023-10-21T14:31:12.914Z,99249.03
2023-10-21T14:34:17.684Z,99248.22
2023-10-21T14:37:19.964Z,99247.19
2023-10-21T14:40:21.815Z,99248.31
2023-10-21T14:43:26.152Z,99254.63
2023-10-21T14:46:28.507Z,99248.56
2023-10-21T14:49:30.262Z,99258.63
2023-10-21T14:52:32.136Z,99261.34
2023-10-21T14:55:48.152Z,99261.41
2023-10-21T14:58:54.520Z,99255.00
2023-10-21T15:01:56.439Z,99257.00
2023-10-21T15:04:58.507Z,99254.84
2023-10-21T15:08:00.887Z,99252.41
2023-10-21T15:11:03.587Z,99264.75
2023-10-21T15:14:05.329Z,99255.34
2023-10-21T15:17:07.506Z,99255.03
2023-10-21T15:20:09.881Z,99257.50
2023-10-21T15:23:11.753Z,99253.13
2023-10-21T15:26:18.410Z,99252.97
2023-10-21T15:29:21.069Z,99243.34
2023-10-21T15:32:23.279Z,99247.34
2023-10-21T15:35:26.403Z,99262.03
2023-10-21T15:38:28.572Z,99263.69
2023-10-21T15:41:30.476Z,99272.13
2023-10-21T15:44:32.218Z,99284.53
2023-10-21T15:47:35.345Z,99287.75
2023-10-21T15:50:37.346Z,99299.44
2023-10-21T15:53:40.525Z,99304.97
2023-10-21T15:56:44.697Z,99306.19
2023-10-21T15:59:47.556Z,99303.31
2023-10-21T16:02:50.772Z,99316.50
2023-10-21T16:05:52.778Z,99318.22
2023-10-21T16:08:54.583Z,99320.09
2023-10-21T16:11:56.689Z,99321.59
2023-10-21T16:14:58.532Z,99318.41
2023-10-21T16:18:00.376Z,99318.03
2023-10-21T16:21:02.274Z,99319.50
2023-10-21T16:24:04.293Z,99335.63
2023-10-21T16:27:06.510Z,99337.09
2023-10-21T16:30:09.226Z,99339.00
2023-10-21T16:33:11.164Z,99354.72
2023-10-21T16:36:13.574Z,99365.03
2023-10-21T16:39:15.406Z,99363.56
2023-10-21T16:42:17.260Z,99372.34
2023-10-21T16:45:19.140Z,99383.03
2023-10-21T16:48:21.127Z,99404.44
2023-10-21T16:51:23.009Z,99400.44
2023-10-21T16:54:24.911Z,99406.09
2023-10-21T16:57:26.874Z,99400.59
2023-10-21T17:00:28.707Z,99402.09
2023-10-21T17:03:30.617Z,99406.50
2023-10-21T17:06:32.670Z,99406.50
2023-10-21T17:09:34.572Z,99407.13
2023-10-21T17:12:36.465Z,99410.69
2023-10-21T17:15:38.397Z,99407.75
2023-10-21T17:18:40.371Z,99399.38
2023-10-21T17:21:42.283Z,99401.66
2023-10-21T17:24:44.289Z,99409.03
2023-10-21T17:27:46.171Z,99399.38
2023-10-21T17:30:49.218Z,99414.66
2023-10-21T17:33:51.954Z,99428.06
2023-10-21T17:36:56.073Z,99422.19
2023-10-21T17:39:57.946Z,99423.25
2023-10-21T17:42:59.829Z,99425.75
2023-10-21T17:46:05.385Z,99416.69
2023-10-21T17:49:07.781Z,99421.53
2023-10-21T17:52:09.612Z,99425.28
2023-10-21T17:55:11.386Z,99432.84
2023-10-21T17:58:14.400Z,99435.09
2023-10-21T18:01:16.543Z,99427.34
2023-10-21T18:04:18.405Z,99424.03
2023-10-21T18:07:20.306Z,99405.81
2023-10-21T18:10:22.037Z,99414.41
2023-10-21T18:13:23.865Z,99403.94
2023-10-21T18:16:25.814Z,99390.53
2023-10-21T18:19:27.741Z,99387.00
2023-10-21T18:22:30.221Z,99375.28
2023-10-21T18:25:32.059Z,99387.81
2023-10-21T18:28:36.961Z,99389.91
2023-10-21T18:31:38.799Z,99398.28
2023-10-21T18:34:41.296Z,99398.47
2023-10-21T18:37:43.147Z,99390.28
2023-10-21T18:40:44.924Z,99379.44
2023-10-21T18:43:46.926Z,99371.25
2023-10-21T18:46:48.777Z,99378.38
2023-10-21T18:49:51.369Z,99375.66
2023-10-21T18:52:53.223Z,99381.50
2023-10-21T18:55:55.063Z,99384.00
2023-10-21T18:59:01.245Z,99377.72
2023-10-21T19:02:04.869Z,99368.97
2023-10-21T19:05:07.278Z,99379.00
2023-10-21T19:08:10.237Z,99384.84
2023-10-21T19:11:14.005Z,99377.34
2023-10-21T19:14:15.837Z,99382.78
2023-10-21T19:17:17.726Z,99383.63
2023-10-21T19:20:19.451Z,99376.31
2023-10-21T19:23:21.536Z,99381.34
2023-10-21T19:26:23.863Z,99381.09
2023-10-21T19:29:26.708Z,99384.84
2023-10-21T19:32:28.892Z,99367.50
2023-10-21T19:35:30.739Z,99381.72
2023-10-21T19:38:33.452Z,99371.03
2023-10-21T19:41:35.308Z,99364.34
2023-10-21T19:44:37.210Z,99368.56
2023-10-21T19:47:39.629Z,99354.34
2023-10-21T19:50:43.726Z,99361.03
2023-10-21T19:53:45.583Z,99348.25
2023-10-21T19:56:47.343Z,99330.91
2023-10-21T19:59:49.064Z,99331.72
2023-10-21T20:02:51.605Z,99325.03
2023-10-21T20:05:57.356Z,99312.47
2023-10-21T20:08:59.390Z,99299.50
2023-10-21T20:12:01.484Z,99290.94
2023-10-21T20:15:03.530Z,99280.88
2023-10-21T20:18:05.546Z,99258.09
2023-10-21T20:21:08.719Z,99245.13
2023-10-21T20:24:10.802Z,99245.09
2023-10-21T20:27:12.879Z,99251.59
2023-10-21T20:30:14.674Z,99271.28
2023-10-21T20:33:16.654Z,99272.53
2023-10-21T20:36:18.923Z,99293.22
2023-10-21T20:39:20.898Z,99303.50
2023-10-21T20:42:22.834Z,99298.81
2023-10-21T20:45:24.744Z,99288.84
2023-10-21T20:48:27.014Z,99291.38
2023-10-21T20:51:28.992Z,99286.31
2023-10-21T20:54:33.492Z,99284.03
2023-10-21T20:57:35.353Z,99275.88
2023-10-21T21:00:39.914Z,99280.06
2023-10-21T21:03:43.824Z,99290.28
2023-10-21T21:06:45.737Z,99289.06
2023-10-21T21:09:47.653Z,99277.53
2023-10-21T21:12:52.002Z,99280.25
2023-10-21T21:15:54.082Z,99288.63
2023-10-21T21:18:56.104Z,99291.13
2023-10-21T21:21:58.715Z,99274.00
2023-10-21T21:25:00.682Z,99270.63
2023-10-21T21:28:02.569Z,99270.63
2023-10-21T21:31:04.335Z,99276.44
2023-10-21T21:34:06.153Z,99265.34
2023-10-21T21:37:08.026Z,99255.97
2023-10-21T21:40:10.457Z,99251.78
2023-10-21T21:43:12.309Z,99239.66
2023-10-21T21:46:20.539Z,99226.31
2023-10-21T21:49:22.489Z,99220.41
2023-10-21T21:52:24.398Z,99209.09
2023-10-21T21:55:26.145Z,99213.31
2023-10-21T21:58:27.947Z,99219.97
2023-10-21T22:01:29.870Z,99224.38
2023-10-21T22:04:32.357Z,99227.97
2023-10-21T22:07:35.514Z,99211.22
2023-10-21T22:10:39.067Z,99218.53
2023-10-21T22:13:41.920Z,99232.97
2023-10-21T22:16:43.759Z,99233.84
2023-10-21T22:19:45.800Z,99238.84
2023-10-21T22:22:49.673Z,99239.88
2023-10-21T22:25:51.497Z,99235.69
2023-10-21T22:28:58.562Z,99239.00
2023-10-21T22:32:00.410Z,99250.09
2023-10-21T22:35:02.354Z,99251.81
2023-10-21T22:38:07.105Z,99257.47
2023-10-21T22:41:09.752Z,99257.88
2023-10-21T22:44:14.411Z,99260.19
2023-10-21T22:47:16.243Z,99257.88
2023-10-21T22:50:19.107Z,99255.56
2023-10-21T22:53:20.988Z,99254.75
2023-10-21T22:56:22.900Z,99261.44
2023-10-21T22:59:24.702Z,99253.06
2023-10-21T23:02:26.602Z,99243.66
2023-10-21T23:05:37.404Z,99252.44
2023-10-21T23:08:39.830Z,99242.63
2023-10-21T23:11:41.998Z,99248.06
2023-10-21T23:14:45.173Z,99247.63
2023-10-21T23:17:50.096Z,99241.16
2023-10-21T23:20:52.060Z,99235.06
2023-10-21T23:23:53.913Z,99238.84
2023-10-21T23:26:55.850Z,99235.06
2023-10-21T23:29:57.670Z,99232.09
2023-10-21T23:33:00.076Z,99226.66
2023-10-21T23:36:07.716Z,99217.69
2023-10-21T23:39:13.806Z,99216.63
2023-10-21T23:42:17.862Z,99219.97
2023-10-21T23:45:21.547Z,99216.63
2023-10-21T23:48:23.382Z,99228.34
2023-10-21T23:51:25.238Z,99232.72
2023-10-21T23:54:27.012Z,99238.78
2023-10-21T23:57:28.857Z,99239.84
